createdAt,value
2018-05-26T00:02:39.511Z,72.44
2018-05-26T00:04:40.939Z,72.25
2018-05-26T00:06:42.374Z,72.63
2018-05-26T00:08:43.807Z,72.83
2018-05-26T00:10:46.142Z,72.54
2018-05-26T00:13:28.640Z,73.11
2018-05-26T00:15:30.268Z,72.79
2018-05-26T00:17:31.708Z,72.89
2018-05-26T00:19:33.128Z,73.08
2018-05-26T00:22:15.545Z,73.27
2018-05-26T00:24:17.006Z,73.66
2018-05-26T00:26:19.111Z,73.75
2018-05-26T00:28:20.641Z,73.66
2018-05-26T00:30:22.075Z,73.57
2018-05-26T00:33:04.501Z,73.66
2018-05-26T00:35:05.929Z,73.57
2018-05-26T00:37:07.387Z,73.37
2018-05-26T00:39:08.934Z,73.47
2018-05-26T00:41:10.360Z,73.95
2018-05-26T00:43:11.776Z,74.05
2018-05-26T00:45:13.209Z,73.95
2018-05-26T00:47:14.620Z,73.85
2018-05-26T00:49:16.067Z,73.66
2018-05-26T00:51:58.487Z,74.14
2018-05-26T00:53:59.920Z,73.95
2018-05-26T00:56:01.352Z,74.52
2018-05-26T00:58:02.828Z,74.24
2018-05-26T01:00:04.287Z,73.91
2018-05-26T01:02:05.712Z,74.40
2018-05-26T01:04:07.137Z,74.30
2018-05-26T01:06:08.568Z,74.68
2018-05-26T01:08:09.997Z,74.40
2018-05-26T01:10:11.422Z,74.30
2018-05-26T01:12:12.851Z,74.40
2018-05-26T01:14:14.292Z,74.97
2018-05-26T01:16:15.750Z,74.68
2018-05-26T01:18:17.422Z,74.49
2018-05-26T01:20:19.302Z,74.30
2018-05-26T01:22:21.213Z,74.49
2018-05-26T01:24:23.196Z,74.49
2018-05-26T01:26:25.091Z,74.40
2018-05-26T01:28:26.831Z,74.40
2018-05-26T01:30:28.345Z,74.40
2018-05-26T01:32:30.057Z,74.58
2018-05-26T01:34:31.578Z,74.36
2018-05-26T01:36:33.140Z,74.49
2018-05-26T01:38:34.650Z,74.40
2018-05-26T01:40:36.198Z,75.07
2018-05-26T01:42:37.699Z,74.84
2018-05-26T01:44:39.240Z,74.45
2018-05-26T01:46:40.761Z,75.07
2018-05-26T01:48:42.255Z,74.36
2018-05-26T01:50:43.817Z,74.16
2018-05-26T01:52:45.294Z,74.36
2018-05-26T01:54:46.905Z,74.36
2018-05-26T01:56:48.956Z,74.07
2018-05-26T01:58:50.449Z,74.07
2018-05-26T02:00:51.990Z,73.39
2018-05-26T02:02:55.042Z,73.39
2018-05-26T02:04:56.507Z,72.72
2018-05-26T02:06:57.980Z,73.20
2018-05-26T02:08:59.408Z,73.49
2018-05-26T02:11:00.864Z,73.10
2018-05-26T02:13:42.277Z,73.58
2018-05-26T02:15:43.749Z,73.46
2018-05-26T02:17:45.176Z,74.03
2018-05-26T02:19:46.643Z,73.84
2018-05-26T02:21:48.059Z,73.74
2018-05-26T02:23:49.490Z,74.13
2018-05-26T02:25:50.919Z,73.26
2018-05-26T02:27:52.347Z,73.94
2018-05-26T02:29:53.799Z,73.36
2018-05-26T02:31:55.264Z,72.78
2018-05-26T02:33:56.909Z,73.07
2018-05-26T02:35:58.775Z,72.88
2018-05-26T02:38:00.659Z,72.68
2018-05-26T02:40:02.228Z,73.07
2018-05-26T02:42:03.699Z,72.88
2018-05-26T02:44:05.131Z,73.07
2018-05-26T02:46:06.681Z,72.97
2018-05-26T02:48:08.247Z,72.97
2018-05-26T02:50:09.803Z,72.88
2018-05-26T02:52:11.289Z,73.03
2018-05-26T02:54:12.802Z,73.16
2018-05-26T02:56:14.388Z,72.45
2018-05-26T02:58:15.923Z,72.65
2018-05-26T03:00:17.504Z,72.84
2018-05-26T03:02:19.044Z,72.55
2018-05-26T03:04:20.469Z,72.45
2018-05-26T03:06:21.930Z,72.84
2018-05-26T03:08:23.434Z,72.74
2018-05-26T03:10:24.864Z,72.65
2018-05-26T03:12:26.324Z,72.74
2018-05-26T03:14:27.915Z,73.13
2018-05-26T03:16:29.379Z,72.84
2018-05-26T03:18:31.306Z,72.36
2018-05-26T03:20:33.002Z,72.65
2018-05-26T03:22:34.446Z,72.74
2018-05-26T03:24:35.970Z,72.65
2018-05-26T03:26:37.401Z,72.65
2018-05-26T03:28:38.882Z,72.71
2018-05-26T03:30:40.406Z,72.55
2018-05-26T03:32:41.916Z,72.45
2018-05-26T03:34:43.427Z,72.80
2018-05-26T03:36:44.893Z,73.03
2018-05-26T03:38:46.384Z,72.74
2018-05-26T03:40:47.931Z,72.94
2018-05-26T03:42:49.442Z,72.61
2018-05-26T03:44:50.916Z,72.71
2018-05-26T03:46:52.410Z,72.80
2018-05-26T03:48:53.885Z,72.80
2018-05-26T03:50:55.386Z,73.00
2018-05-26T03:52:56.964Z,73.03
2018-05-26T03:54:58.489Z,73.03
2018-05-26T03:57:00.010Z,72.94
2018-05-26T03:59:01.554Z,73.22
2018-05-26T04:01:03.074Z,73.42
2018-05-26T04:03:04.550Z,73.32
2018-05-26T04:05:06.053Z,73.32
2018-05-26T04:07:07.509Z,73.71
2018-05-26T04:09:09.044Z,73.99
2018-05-26T04:11:10.544Z,74.05
2018-05-26T04:13:12.094Z,73.47
2018-05-26T04:15:13.554Z,73.67
2018-05-26T04:17:15.105Z,74.29
2018-05-26T04:19:16.776Z,74.38
2018-05-26T04:21:18.324Z,74.38
2018-05-26T04:23:20.021Z,74.86
2018-05-26T04:25:21.479Z,74.54
2018-05-26T04:27:23.229Z,74.38
2018-05-26T04:29:24.852Z,74.57
2018-05-26T04:31:26.409Z,74.82
2018-05-26T04:33:27.927Z,74.86
2018-05-26T04:35:29.499Z,74.76
2018-05-26T04:37:30.985Z,74.86
2018-05-26T04:39:32.575Z,74.67
2018-05-26T04:41:34.138Z,74.76
2018-05-26T04:43:35.621Z,75.24
2018-05-26T04:45:37.085Z,75.82
2018-05-26T04:47:38.622Z,75.05
2018-05-26T04:49:40.074Z,75.24
2018-05-26T04:51:41.498Z,75.63
2018-05-26T04:53:42.913Z,75.34
2018-05-26T04:55:44.372Z,75.73
2018-05-26T04:57:45.876Z,75.54
2018-05-26T04:59:47.427Z,75.05
2018-05-26T05:02:29.842Z,75.15
2018-05-26T05:04:31.271Z,75.82
2018-05-26T05:06:32.722Z,75.15
2018-05-26T05:08:34.134Z,76.01
2018-05-26T05:10:35.598Z,75.86
2018-05-26T05:12:37.286Z,75.82
2018-05-26T05:14:38.877Z,75.09
2018-05-26T05:16:40.349Z,75.48
2018-05-26T05:18:42.236Z,75.67
2018-05-26T05:20:43.790Z,75.09
2018-05-26T05:22:45.397Z,75.76
2018-05-26T05:24:46.864Z,75.09
2018-05-26T05:26:48.527Z,75.09
2018-05-26T05:28:49.969Z,75.19
2018-05-26T05:30:51.401Z,75.28
2018-05-26T05:32:52.839Z,74.99
2018-05-26T05:34:54.332Z,75.19
2018-05-26T05:36:55.779Z,75.23
2018-05-26T05:38:57.257Z,74.74
2018-05-26T05:40:58.702Z,73.91
2018-05-26T05:43:00.135Z,72.08
2018-05-26T05:45:01.636Z,70.76
2018-05-26T05:47:03.515Z,70.90
2018-05-26T05:49:05.225Z,71.00
2018-05-26T05:51:06.668Z,70.54
2018-05-26T05:53:08.261Z,68.75
2018-05-26T05:55:09.999Z,64.63
2018-05-26T05:57:11.533Z,63.40
2018-05-26T05:59:13.050Z,62.34
2018-05-26T06:01:14.683Z,64.59
2018-05-26T06:03:57.190Z,63.34
2018-05-26T06:05:58.674Z,63.82
2018-05-26T06:08:00.122Z,63.08
2018-05-26T06:10:01.934Z,60.14
2018-05-26T06:12:48.402Z,57.00
2018-05-26T06:14:52.998Z,54.44
2018-05-26T06:16:54.453Z,52.94
2018-05-26T06:18:57.020Z,51.01
2018-05-26T06:20:58.925Z,50.24
2018-05-26T06:23:49.585Z,50.43
2018-05-26T06:25:54.882Z,51.40
2018-05-26T06:29:21.617Z,50.65
2018-05-26T06:32:28.097Z,49.39
2018-05-26T06:34:30.076Z,49.39
2018-05-26T06:36:31.958Z,50.95
2018-05-26T06:38:34.729Z,48.34
2018-05-26T06:40:36.533Z,46.05
2018-05-26T06:42:39.931Z,45.10
2018-05-26T06:45:24.530Z,44.85
2018-05-26T06:48:12.328Z,42.19
2018-05-26T06:51:51.581Z,40.43
2018-05-26T06:53:54.520Z,40.35
2018-05-26T06:55:57.213Z,39.80
2018-05-26T06:58:54.058Z,39.12
2018-05-26T07:01:41.053Z,37.59
2018-05-26T07:03:45.185Z,36.33
2018-05-26T07:05:47.060Z,36.06
2018-05-26T07:07:51.687Z,36.27
2018-05-26T07:09:53.624Z,34.92
2018-05-26T07:11:55.448Z,36.11
2018-05-26T07:13:58.382Z,34.34
2018-05-26T07:16:00.650Z,35.52
2018-05-26T07:18:02.452Z,34.31
2018-05-26T07:20:47.167Z,36.16
2018-05-26T07:22:52.612Z,38.20
2018-05-26T07:24:54.595Z,37.87
2018-05-26T07:29:19.715Z,39.47
2018-05-26T07:31:23.231Z,42.73
2018-05-26T07:33:24.902Z,43.64
2018-05-26T07:35:26.976Z,45.37
2018-05-26T07:37:29.023Z,46.98
2018-05-26T07:39:30.958Z,48.32
2018-05-26T07:41:33.077Z,50.04
2018-05-26T07:43:39.788Z,51.18
2018-05-26T07:45:57.100Z,51.65
2018-05-26T07:47:58.814Z,52.40
2018-05-26T07:50:00.404Z,54.92
2018-05-26T07:52:02.708Z,53.44
2018-05-26T07:54:04.557Z,54.02
2018-05-26T07:56:06.447Z,53.80
2018-05-26T07:58:08.634Z,54.58
2018-05-26T08:00:10.751Z,54.96
2018-05-26T08:02:13.054Z,54.99
2018-05-26T08:04:15.116Z,54.48
2018-05-26T08:06:17.121Z,55.26
2018-05-26T08:08:19.066Z,55.18
2018-05-26T08:10:21.555Z,55.47
2018-05-26T08:12:23.755Z,54.31
2018-05-26T08:14:26.210Z,54.02
2018-05-26T08:16:28.335Z,54.70
2018-05-26T08:18:30.209Z,55.18
2018-05-26T08:20:32.030Z,54.72
2018-05-26T08:22:33.980Z,54.44
2018-05-26T08:24:36.204Z,53.75
2018-05-26T08:26:38.369Z,54.56
2018-05-26T08:28:40.222Z,54.36
2018-05-26T08:30:42.135Z,51.75
2018-05-26T08:32:44.402Z,53.00
2018-05-26T08:34:46.365Z,51.75
2018-05-26T08:36:48.241Z,50.80
2018-05-26T08:38:50.287Z,50.80
2018-05-26T08:40:52.187Z,51.28
2018-05-26T08:42:54.032Z,51.50
2018-05-26T08:44:56.026Z,52.57
2018-05-26T08:46:57.873Z,50.65
2018-05-26T08:48:59.637Z,49.19
2018-05-26T08:51:01.547Z,48.90
2018-05-26T08:53:03.713Z,48.13
2018-05-26T08:55:05.667Z,48.32
2018-05-26T08:57:07.506Z,47.93
2018-05-26T08:59:09.456Z,46.98
2018-05-26T09:01:11.581Z,48.15
2018-05-26T09:03:13.441Z,47.88
2018-05-26T09:05:15.291Z,47.00
2018-05-26T09:07:17.118Z,47.20
2018-05-26T09:09:19.008Z,45.74
2018-05-26T09:12:03.341Z,45.35
2018-05-26T09:14:05.108Z,47.90
2018-05-26T09:16:06.846Z,45.67
2018-05-26T09:18:09.021Z,45.08
2018-05-26T09:20:10.967Z,46.08
2018-05-26T09:22:13.286Z,43.84
2018-05-26T09:24:15.101Z,42.86
2018-05-26T09:26:17.132Z,42.96
2018-05-26T09:28:19.024Z,41.99
2018-05-26T09:30:20.949Z,45.03
2018-05-26T09:32:23.168Z,42.59
2018-05-26T09:34:25.331Z,42.30
2018-05-26T09:36:26.987Z,42.12
2018-05-26T09:38:28.858Z,42.12
2018-05-26T09:40:30.760Z,42.41
2018-05-26T09:42:32.638Z,37.93
2018-05-26T09:44:34.389Z,39.59
2018-05-26T09:46:36.093Z,41.44
2018-05-26T09:48:37.988Z,40.08
2018-05-26T09:50:40.243Z,40.58
2018-05-26T09:52:42.006Z,38.82
2018-05-26T09:54:43.781Z,36.88
2018-05-26T09:56:45.596Z,38.82
2018-05-26T09:58:47.435Z,39.14
2018-05-26T10:00:49.365Z,38.04
2018-05-26T10:02:51.281Z,37.29
2018-05-26T10:04:53.351Z,36.21
2018-05-26T10:06:55.060Z,36.51
2018-05-26T10:08:56.601Z,35.92
2018-05-26T10:10:58.144Z,34.75
2018-05-26T10:12:59.685Z,35.82
2018-05-26T10:15:01.155Z,36.70
2018-05-26T10:17:02.649Z,35.33
2018-05-26T10:19:04.107Z,36.21
2018-05-26T10:21:05.649Z,35.43
2018-05-26T10:23:07.183Z,36.91
2018-05-26T10:25:08.696Z,35.35
2018-05-26T10:27:10.224Z,35.85
2018-05-26T10:29:11.788Z,34.67
2018-05-26T10:31:13.272Z,36.24
2018-05-26T10:33:14.805Z,37.04
2018-05-26T10:35:16.296Z,33.02
2018-05-26T10:37:17.806Z,35.07
2018-05-26T10:40:00.248Z,33.92
2018-05-26T10:42:01.695Z,34.11
2018-05-26T10:44:03.141Z,34.31
2018-05-26T10:46:04.595Z,32.27
2018-05-26T10:48:06.051Z,30.49
2018-05-26T10:50:07.482Z,32.76
2018-05-26T10:52:08.942Z,32.16
2018-05-26T10:54:10.434Z,31.57
2018-05-26T10:56:11.847Z,32.94
2018-05-26T10:58:13.297Z,33.53
2018-05-26T11:00:14.743Z,34.01
2018-05-26T11:02:16.189Z,33.53
2018-05-26T11:04:17.685Z,33.84
2018-05-26T11:06:19.082Z,33.23
2018-05-26T11:08:20.527Z,33.64
2018-05-26T11:10:21.976Z,33.64
2018-05-26T11:12:23.654Z,31.00
2018-05-26T11:14:25.321Z,30.61
2018-05-26T11:16:27.585Z,31.78
2018-05-26T11:18:29.413Z,31.10
2018-05-26T11:20:30.988Z,30.23
2018-05-26T11:22:32.554Z,30.52
2018-05-26T11:24:34.268Z,30.43
2018-05-26T11:26:35.795Z,30.72
2018-05-26T11:28:37.345Z,29.94
2018-05-26T11:30:38.791Z,27.88
2018-05-26T11:32:40.290Z,27.77
2018-05-26T11:34:41.810Z,29.14
2018-05-26T11:36:43.351Z,29.34
2018-05-26T11:38:44.818Z,30.40
2018-05-26T11:40:46.272Z,29.91
2018-05-26T11:42:47.870Z,28.93
2018-05-26T11:44:49.272Z,29.03
2018-05-26T11:46:50.716Z,29.22
2018-05-26T11:48:52.164Z,29.14
2018-05-26T11:50:53.611Z,28.85
2018-05-26T11:52:55.060Z,27.58
2018-05-26T11:54:56.533Z,27.97
2018-05-26T11:56:57.928Z,27.37
2018-05-26T11:58:59.390Z,29.13
2018-05-26T12:01:00.836Z,28.16
2018-05-26T12:03:02.286Z,27.09
2018-05-26T12:05:03.731Z,28.26
2018-05-26T12:07:05.180Z,28.45
2018-05-26T12:09:06.628Z,28.06
2018-05-26T12:11:08.078Z,27.77
2018-05-26T12:13:09.548Z,27.97
2018-05-26T12:15:10.987Z,29.34
2018-05-26T12:17:12.436Z,29.93
2018-05-26T12:19:13.885Z,28.77
2018-05-26T12:21:15.330Z,27.98
2018-05-26T12:23:16.780Z,28.47
2018-05-26T12:25:18.235Z,27.87
2018-05-26T12:27:19.677Z,28.08
2018-05-26T12:29:21.168Z,27.88
2018-05-26T12:31:22.780Z,27.09
2018-05-26T12:33:24.245Z,28.65
2018-05-26T12:35:25.732Z,28.55
2018-05-26T12:37:27.240Z,27.69
2018-05-26T12:39:28.829Z,27.49
2018-05-26T12:41:30.257Z,28.38
2018-05-26T12:43:31.698Z,28.18
2018-05-26T12:45:33.135Z,27.00
2018-05-26T12:47:34.593Z,28.29
2018-05-26T12:49:36.046Z,27.00
2018-05-26T12:51:37.485Z,29.25
2018-05-26T12:53:38.933Z,27.59
2018-05-26T12:55:40.488Z,26.42
2018-05-26T12:57:41.968Z,26.51
2018-05-26T12:59:43.857Z,27.29
2018-05-26T13:01:45.800Z,27.78
2018-05-26T13:03:47.642Z,28.47
2018-05-26T13:05:49.463Z,28.57
2018-05-26T13:07:50.977Z,27.59
2018-05-26T13:09:52.431Z,28.28
2018-05-26T13:11:53.872Z,28.88
2018-05-26T13:13:55.372Z,27.50
2018-05-26T13:15:56.893Z,28.00
2018-05-26T13:17:58.375Z,26.82
2018-05-26T13:19:59.945Z,28.19
2018-05-26T13:22:01.426Z,27.11
2018-05-26T13:24:02.893Z,26.72
2018-05-26T13:26:04.391Z,26.82
2018-05-26T13:28:05.902Z,28.01
2018-05-26T13:30:07.435Z,27.70
2018-05-26T13:32:08.976Z,28.19
2018-05-26T13:34:10.677Z,27.01
2018-05-26T13:36:12.226Z,27.11
2018-05-26T13:38:13.801Z,27.40
2018-05-26T13:40:15.342Z,28.97
2018-05-26T13:42:16.832Z,26.61
2018-05-26T13:44:18.368Z,28.97
2018-05-26T13:46:19.841Z,25.93
2018-05-26T13:48:21.307Z,27.11
2018-05-26T13:50:22.867Z,27.40
2018-05-26T13:52:24.340Z,25.16
2018-05-26T13:54:25.980Z,24.86
2018-05-26T13:56:27.549Z,25.84
2018-05-26T13:58:28.985Z,26.72
2018-05-26T14:00:30.512Z,26.81
2018-05-26T14:02:32.003Z,27.78
2018-05-26T14:04:33.460Z,28.67
2018-05-26T14:06:35.112Z,29.35
2018-05-26T14:08:36.800Z,29.35
2018-05-26T14:10:38.507Z,27.98
2018-05-26T14:12:40.389Z,27.88
2018-05-26T14:14:41.927Z,28.67
2018-05-26T14:16:43.494Z,28.86
2018-05-26T14:18:45.008Z,29.55
2018-05-26T14:20:46.623Z,28.47
2018-05-26T14:22:48.339Z,29.74
2018-05-26T14:24:50.239Z,27.69
2018-05-26T14:26:51.962Z,27.59
2018-05-26T14:28:53.866Z,27.69
2018-05-26T14:30:55.370Z,27.78
2018-05-26T14:32:56.925Z,28.19
2018-05-26T14:34:58.436Z,27.11
2018-05-26T14:36:59.879Z,27.90
2018-05-26T14:39:01.404Z,27.61
2018-05-26T14:41:02.880Z,27.40
2018-05-26T14:43:04.425Z,28.29
2018-05-26T14:45:05.954Z,28.49
2018-05-26T14:47:07.466Z,28.58
2018-05-26T14:49:08.922Z,29.07
2018-05-26T14:51:10.371Z,30.15
2018-05-26T14:53:11.816Z,29.07
2018-05-26T14:55:13.273Z,29.16
2018-05-26T14:57:14.827Z,29.27
2018-05-26T14:59:16.551Z,29.46
2018-05-26T15:01:18.173Z,30.93
2018-05-26T15:03:19.659Z,30.54
2018-05-26T15:05:21.115Z,30.74
2018-05-26T15:07:22.627Z,30.13
2018-05-26T15:09:24.028Z,31.21
2018-05-26T15:11:25.486Z,31.21
2018-05-26T15:13:27.044Z,30.72
2018-05-26T15:15:28.472Z,30.80
2018-05-26T15:17:29.931Z,31.41
2018-05-26T15:19:31.384Z,31.31
2018-05-26T15:21:32.828Z,31.31
2018-05-26T15:23:34.273Z,31.31
2018-05-26T15:25:35.721Z,31.80
2018-05-26T15:27:37.173Z,32.09
2018-05-26T15:29:38.638Z,30.41
2018-05-26T15:31:40.078Z,30.12
2018-05-26T15:33:41.537Z,31.10
2018-05-26T15:35:42.984Z,30.12
2018-05-26T15:37:44.425Z,30.71
2018-05-26T15:39:45.888Z,30.51
2018-05-26T15:41:47.331Z,30.79
2018-05-26T15:43:48.769Z,30.49
2018-05-26T15:45:50.218Z,30.79
2018-05-26T15:47:51.666Z,30.49
2018-05-26T15:49:53.111Z,31.28
2018-05-26T15:52:35.593Z,31.38
2018-05-26T15:54:37.028Z,31.28
2018-05-26T15:56:38.478Z,30.88
2018-05-26T15:58:39.914Z,30.10
2018-05-26T16:00:41.359Z,32.26
2018-05-26T16:02:42.958Z,32.75
2018-05-26T16:04:44.434Z,31.38
2018-05-26T16:06:45.927Z,31.08
2018-05-26T16:08:47.455Z,31.77
2018-05-26T16:10:49.086Z,31.57
2018-05-26T16:12:50.605Z,31.08
2018-05-26T16:14:52.046Z,32.24
2018-05-26T16:16:53.495Z,30.77
2018-05-26T16:18:55.064Z,30.96
2018-05-26T16:20:56.549Z,31.35
2018-05-26T16:22:57.989Z,31.64
2018-05-26T16:24:59.434Z,31.72
2018-05-26T16:27:00.889Z,31.43
2018-05-26T16:29:02.335Z,32.21
2018-05-26T16:31:03.770Z,32.31
2018-05-26T16:33:05.210Z,33.38
2018-05-26T16:35:06.652Z,33.58
2018-05-26T16:37:08.102Z,33.58
2018-05-26T16:39:50.541Z,34.06
2018-05-26T16:41:51.992Z,34.55
2018-05-26T16:43:53.436Z,33.48
2018-05-26T16:45:54.884Z,32.89
2018-05-26T16:47:56.325Z,32.99
2018-05-26T16:49:57.780Z,32.21
2018-05-26T16:51:59.222Z,32.21
2018-05-26T16:54:00.664Z,32.40
2018-05-26T16:56:02.106Z,31.82
2018-05-26T16:58:03.548Z,31.23
2018-05-26T17:00:04.996Z,30.55
2018-05-26T17:02:06.431Z,30.94
2018-05-26T17:04:07.879Z,31.04
2018-05-26T17:06:09.321Z,31.22
2018-05-26T17:08:10.769Z,31.99
2018-05-26T17:10:12.215Z,30.54
2018-05-26T17:12:13.659Z,29.95
2018-05-26T17:14:15.105Z,31.22
2018-05-26T17:16:16.551Z,31.22
2018-05-26T17:18:18.042Z,31.12
2018-05-26T17:20:19.529Z,30.24
2018-05-26T17:22:21.077Z,30.54
2018-05-26T17:24:22.510Z,29.56
2018-05-26T17:26:23.957Z,30.34
2018-05-26T17:28:25.424Z,29.85
2018-05-26T17:30:26.923Z,30.83
2018-05-26T17:32:28.456Z,31.69
2018-05-26T17:34:30.013Z,29.93
2018-05-26T17:36:31.545Z,31.20
2018-05-26T17:38:33.017Z,31.49
2018-05-26T17:40:34.595Z,32.86
2018-05-26T17:42:36.363Z,31.40
2018-05-26T17:44:38.236Z,31.09
2018-05-26T17:46:40.124Z,31.19
2018-05-26T17:48:41.909Z,31.59
2018-05-26T17:50:43.385Z,31.28
2018-05-26T17:52:45.071Z,31.88
2018-05-26T17:54:46.858Z,32.84
2018-05-26T17:56:48.631Z,33.23
2018-05-26T17:58:50.153Z,32.45
2018-05-26T18:00:51.587Z,34.11
2018-05-26T18:02:53.088Z,33.82
2018-05-26T18:04:54.621Z,34.11
2018-05-26T18:06:56.197Z,34.00
2018-05-26T18:08:58.086Z,33.62
2018-05-26T18:10:59.604Z,33.22
2018-05-26T18:13:01.058Z,34.00
2018-05-26T18:15:02.611Z,33.41
2018-05-26T18:17:04.094Z,35.55
2018-05-26T18:19:05.563Z,35.46
2018-05-26T18:21:07.082Z,36.92
2018-05-26T18:23:08.562Z,36.14
2018-05-26T18:25:10.026Z,37.70
2018-05-26T18:27:11.466Z,37.89
2018-05-26T18:29:13.031Z,37.60
2018-05-26T18:31:14.556Z,35.93
2018-05-26T18:33:16.026Z,38.65
2018-05-26T18:35:17.497Z,37.77
2018-05-26T18:37:18.974Z,36.71
2018-05-26T18:39:20.459Z,38.65
2018-05-26T18:41:22.007Z,38.85
2018-05-26T18:43:23.553Z,37.68
2018-05-26T18:45:25.050Z,39.51
2018-05-26T18:47:26.593Z,40.39
2018-05-26T18:49:28.092Z,40.48
2018-05-26T18:51:29.598Z,40.29
2018-05-26T18:53:31.043Z,41.24
2018-05-26T18:55:32.480Z,41.63
2018-05-26T18:57:33.945Z,41.05
2018-05-26T18:59:35.406Z,42.02
2018-05-26T19:01:36.920Z,41.93
2018-05-26T19:03:38.425Z,42.50
2018-05-26T19:05:39.873Z,43.29
2018-05-26T19:07:41.313Z,42.41
2018-05-26T19:09:42.760Z,42.39
2018-05-26T19:11:44.182Z,43.36
2018-05-26T19:13:45.638Z,43.16
2018-05-26T19:15:47.493Z,43.46
2018-05-26T19:17:49.339Z,43.65
2018-05-26T19:19:51.071Z,43.55
2018-05-26T19:21:52.919Z,43.73
2018-05-26T19:23:54.595Z,43.92
2018-05-26T19:25:56.372Z,44.02
2018-05-26T19:27:57.881Z,44.12
2018-05-26T19:29:59.368Z,43.82
2018-05-26T19:32:00.816Z,44.60
2018-05-26T19:34:02.254Z,44.60
2018-05-26T19:36:03.707Z,44.09
2018-05-26T19:38:05.314Z,43.51
2018-05-26T19:40:06.872Z,43.51
2018-05-26T19:42:08.318Z,44.00
2018-05-26T19:44:09.810Z,44.38
2018-05-26T19:46:11.190Z,43.98
2018-05-26T19:48:12.624Z,44.46
2018-05-26T19:50:14.173Z,44.56
2018-05-26T19:52:15.617Z,44.17
2018-05-26T19:54:17.079Z,44.95
2018-05-26T19:56:18.616Z,44.85
2018-05-26T19:58:20.126Z,45.34
2018-05-26T20:00:21.557Z,45.04
2018-05-26T20:02:23.009Z,45.14
2018-05-26T20:04:24.479Z,45.51
2018-05-26T20:06:25.982Z,45.41
2018-05-26T20:08:27.465Z,45.51
2018-05-26T20:10:28.894Z,45.31
2018-05-26T20:12:30.443Z,44.83
2018-05-26T20:14:32.032Z,45.51
2018-05-26T20:16:33.820Z,45.31
2018-05-26T20:18:35.740Z,44.81
2018-05-26T20:20:37.302Z,45.48
2018-05-26T20:22:38.740Z,44.90
2018-05-26T20:24:40.179Z,44.90
2018-05-26T20:26:41.610Z,45.10
2018-05-26T20:28:43.048Z,45.68
2018-05-26T20:30:44.496Z,45.78
2018-05-26T20:32:46.098Z,45.87
2018-05-26T20:34:47.572Z,45.97
2018-05-26T20:36:49.033Z,46.14
2018-05-26T20:38:50.627Z,47.11
2018-05-26T20:41:33.056Z,46.92
2018-05-26T20:43:34.496Z,47.11
2018-05-26T20:45:35.929Z,46.92
2018-05-26T20:47:37.364Z,47.28
2018-05-26T20:49:38.797Z,47.19
2018-05-26T20:51:40.239Z,47.86
2018-05-26T20:53:41.669Z,48.06
2018-05-26T20:55:43.106Z,47.67
2018-05-26T20:57:44.545Z,47.57
2018-05-26T20:59:45.981Z,48.35
2018-05-26T21:01:47.441Z,48.25
2018-05-26T21:03:48.876Z,48.13
2018-05-26T21:05:50.392Z,48.06
2018-05-26T21:07:51.834Z,48.81
2018-05-26T21:09:53.269Z,48.71
2018-05-26T21:11:54.698Z,48.90
2018-05-26T21:13:56.129Z,49.19
2018-05-26T21:15:57.614Z,49.00
2018-05-26T21:17:59.071Z,48.61
2018-05-26T21:20:00.660Z,48.90
2018-05-26T21:22:02.138Z,49.00
2018-05-26T21:24:03.647Z,49.29
2018-05-26T21:26:05.106Z,48.81
2018-05-26T21:28:06.603Z,48.88
2018-05-26T21:30:08.083Z,49.37
2018-05-26T21:32:09.572Z,49.17
2018-05-26T21:34:11.132Z,49.56
2018-05-26T21:36:12.630Z,49.27
2018-05-26T21:38:14.152Z,49.17
2018-05-26T21:40:15.677Z,48.59
2018-05-26T21:42:17.308Z,48.39
2018-05-26T21:44:19.077Z,48.49
2018-05-26T21:46:20.845Z,48.39
2018-05-26T21:48:22.723Z,48.57
2018-05-26T21:50:24.544Z,48.86
2018-05-26T21:52:26.059Z,48.39
2018-05-26T21:54:27.535Z,48.76
2018-05-26T21:56:29.044Z,48.47
2018-05-26T21:58:30.517Z,49.15
2018-05-26T22:00:31.991Z,47.21
2018-05-26T22:02:33.490Z,47.11
2018-05-26T22:04:35.032Z,47.79
2018-05-26T22:06:36.519Z,46.92
2018-05-26T22:08:38.025Z,47.11
2018-05-26T22:10:39.464Z,46.53
2018-05-26T22:12:41.097Z,46.63
2018-05-26T22:14:42.633Z,46.83
2018-05-26T22:16:44.145Z,46.51
2018-05-26T22:18:45.646Z,46.92
2018-05-26T22:20:47.230Z,47.11
2018-05-26T22:22:48.908Z,46.63
2018-05-26T22:24:50.620Z,46.92
2018-05-26T22:26:52.502Z,47.11
2018-05-26T22:28:53.984Z,47.11
2018-05-26T22:30:55.469Z,46.92
2018-05-26T22:32:57.042Z,47.41
2018-05-26T22:34:58.522Z,47.67
2018-05-26T22:37:00.017Z,47.28
2018-05-26T22:39:43.255Z,47.86
2018-05-26T22:41:46.681Z,47.58
2018-05-26T22:43:48.408Z,48.44
2018-05-26T22:45:50.211Z,48.83
2018-05-26T22:47:52.142Z,48.44
2018-05-26T22:49:54.446Z,48.61
2018-05-26T22:51:56.739Z,48.90
2018-05-26T22:54:40.804Z,49.49
2018-05-26T22:57:25.399Z,49.29
2018-05-26T22:59:27.420Z,48.90
2018-05-26T23:01:29.121Z,48.90
2018-05-26T23:03:30.935Z,49.10
2018-05-26T23:05:32.899Z,49.19
2018-05-26T23:07:34.820Z,49.19
2018-05-26T23:09:36.834Z,49.87
2018-05-26T23:11:38.746Z,49.10
2018-05-26T23:14:22.965Z,49.39
2018-05-26T23:16:26.263Z,49.10
2018-05-26T23:18:27.924Z,49.77
2018-05-26T23:20:30.452Z,49.77
2018-05-26T23:22:32.825Z,49.77
2018-05-26T23:24:34.764Z,49.68
2018-05-26T23:26:36.924Z,49.58
2018-05-26T23:28:38.839Z,49.77
2018-05-26T23:30:41.106Z,50.07
2018-05-26T23:32:43.072Z,50.26
2018-05-26T23:34:45.003Z,50.52
2018-05-26T23:36:46.990Z,50.13
2018-05-26T23:38:48.992Z,50.33
2018-05-26T23:40:50.766Z,50.43
2018-05-26T23:42:52.532Z,50.33
2018-05-26T23:44:54.728Z,50.52
2018-05-26T23:46:56.679Z,50.81
2018-05-26T23:48:59.133Z,51.01
2018-05-26T23:51:01.121Z,50.91
2018-05-26T23:53:03.027Z,50.62
2018-05-26T23:55:05.006Z,50.81
2018-05-26T23:57:06.871Z,51.01
2018-05-26T23:59:08.808Z,50.91
